sensor_id;sensor_type;location;lat;lon;timestamp;temperature;humidity
74617;DHT22;63123;50.906;4.198;2023-04-25T00:02:10;16.70;54.00
74617;DHT22;63123;50.906;4.198;2023-04-25T00:04:35;16.70;54.00
74617;DHT22;63123;50.906;4.198;2023-04-25T00:07:03;16.70;53.90
74617;DHT22;63123;50.906;4.198;2023-04-25T00:09:29;16.70;54.10
74617;DHT22;63123;50.906;4.198;2023-04-25T00:11:55;16.70;54.00
74617;DHT22;63123;50.906;4.198;2023-04-25T00:14:21;16.70;54.00
74617;DHT22;63123;50.906;4.198;2023-04-25T00:16:47;16.70;54.20
74617;DHT22;63123;50.906;4.198;2023-04-25T00:19:13;16.70;53.90
74617;DHT22;63123;50.906;4.198;2023-04-25T00:21:39;16.70;54.00
74617;DHT22;63123;50.906;4.198;2023-04-25T00:24:08;16.70;53.80
74617;DHT22;63123;50.906;4.198;2023-04-25T00:26:34;16.70;54.00
74617;DHT22;63123;50.906;4.198;2023-04-25T00:29:01;16.70;54.00
74617;DHT22;63123;50.906;4.198;2023-04-25T00:31:27;16.70;54.00
74617;DHT22;63123;50.906;4.198;2023-04-25T00:33:54;16.70;54.00
74617;DHT22;63123;50.906;4.198;2023-04-25T00:36:20;16.70;53.90
74617;DHT22;63123;50.906;4.198;2023-04-25T00:38:45;16.70;54.00
74617;DHT22;63123;50.906;4.198;2023-04-25T00:41:11;16.70;54.00
74617;DHT22;63123;50.906;4.198;2023-04-25T00:43:37;16.70;54.20
74617;DHT22;63123;50.906;4.198;2023-04-25T00:46:03;16.70;54.10
74617;DHT22;63123;50.906;4.198;2023-04-25T00:48:29;16.70;54.10
74617;DHT22;63123;50.906;4.198;2023-04-25T00:50:57;16.70;54.10
74617;DHT22;63123;50.906;4.198;2023-04-25T00:53:24;16.70;54.20
74617;DHT22;63123;50.906;4.198;2023-04-25T00:55:51;16.70;54.20
74617;DHT22;63123;50.906;4.198;2023-04-25T00:58:18;16.70;54.20
74617;DHT22;63123;50.906;4.198;2023-04-25T01:00:45;16.70;54.30
74617;DHT22;63123;50.906;4.198;2023-04-25T01:03:12;16.70;54.20
74617;DHT22;63123;50.906;4.198;2023-04-25T01:05:40;16.70;54.30
74617;DHT22;63123;50.906;4.198;2023-04-25T01:08:07;16.70;54.30
74617;DHT22;63123;50.906;4.198;2023-04-25T01:10:32;16.70;54.30
74617;DHT22;63123;50.906;4.198;2023-04-25T01:12:58;16.70;54.50
74617;DHT22;63123;50.906;4.198;2023-04-25T01:15:24;16.70;54.30
74617;DHT22;63123;50.906;4.198;2023-04-25T01:17:50;16.70;54.30
74617;DHT22;63123;50.906;4.198;2023-04-25T01:20:16;16.70;54.30
74617;DHT22;63123;50.906;4.198;2023-04-25T01:22:43;16.70;54.20
74617;DHT22;63123;50.906;4.198;2023-04-25T01:25:08;16.70;54.20
74617;DHT22;63123;50.906;4.198;2023-04-25T01:27:36;16.70;54.30
74617;DHT22;63123;50.906;4.198;2023-04-25T01:30:03;16.70;54.40
74617;DHT22;63123;50.906;4.198;2023-04-25T01:32:29;16.70;54.30
74617;DHT22;63123;50.906;4.198;2023-04-25T01:35:06;16.70;54.30
74617;DHT22;63123;50.906;4.198;2023-04-25T01:37:42;16.70;54.30
74617;DHT22;63123;50.906;4.198;2023-04-25T01:40:12;16.60;54.20
74617;DHT22;63123;50.906;4.198;2023-04-25T01:42:40;16.70;54.20
74617;DHT22;63123;50.906;4.198;2023-04-25T01:45:07;16.70;54.30
74617;DHT22;63123;50.906;4.198;2023-04-25T01:47:33;16.70;54.20
74617;DHT22;63123;50.906;4.198;2023-04-25T01:50:03;16.70;54.40
74617;DHT22;63123;50.906;4.198;2023-04-25T01:52:29;16.70;54.30
74617;DHT22;63123;50.906;4.198;2023-04-25T01:54:56;16.70;54.40
74617;DHT22;63123;50.906;4.198;2023-04-25T01:57:22;16.70;54.30
74617;DHT22;63123;50.906;4.198;2023-04-25T01:59:48;16.70;54.30
74617;DHT22;63123;50.906;4.198;2023-04-25T02:02:14;16.70;54.40
74617;DHT22;63123;50.906;4.198;2023-04-25T02:04:40;16.70;54.30
74617;DHT22;63123;50.906;4.198;2023-04-25T02:07:05;16.70;54.40
74617;DHT22;63123;50.906;4.198;2023-04-25T02:09:31;16.70;54.30
74617;DHT22;63123;50.906;4.198;2023-04-25T02:11:57;16.70;54.30
74617;DHT22;63123;50.906;4.198;2023-04-25T02:14:23;16.70;54.40
74617;DHT22;63123;50.906;4.198;2023-04-25T02:16:48;16.70;54.20
74617;DHT22;63123;50.906;4.198;2023-04-25T02:19:14;16.70;54.40
74617;DHT22;63123;50.906;4.198;2023-04-25T02:21:40;16.70;54.30
74617;DHT22;63123;50.906;4.198;2023-04-25T02:24:06;16.70;54.30
74617;DHT22;63123;50.906;4.198;2023-04-25T02:26:32;16.70;54.30
74617;DHT22;63123;50.906;4.198;2023-04-25T02:28:57;16.70;54.30
74617;DHT22;63123;50.906;4.198;2023-04-25T02:31:23;16.70;54.30
74617;DHT22;63123;50.906;4.198;2023-04-25T02:33:48;16.70;54.10
74617;DHT22;63123;50.906;4.198;2023-04-25T02:36:14;16.70;54.20
74617;DHT22;63123;50.906;4.198;2023-04-25T02:38:40;16.60;54.30
74617;DHT22;63123;50.906;4.198;2023-04-25T02:41:06;16.60;54.30
74617;DHT22;63123;50.906;4.198;2023-04-25T02:43:32;16.70;54.20
74617;DHT22;63123;50.906;4.198;2023-04-25T02:45:57;16.70;54.20
74617;DHT22;63123;50.906;4.198;2023-04-25T02:48:23;16.70;54.20
74617;DHT22;63123;50.906;4.198;2023-04-25T02:50:48;16.70;54.30
74617;DHT22;63123;50.906;4.198;2023-04-25T02:53:14;16.70;54.20
74617;DHT22;63123;50.906;4.198;2023-04-25T02:55:40;16.70;54.20
74617;DHT22;63123;50.906;4.198;2023-04-25T02:58:06;16.70;54.30
74617;DHT22;63123;50.906;4.198;2023-04-25T03:00:31;16.70;54.30
74617;DHT22;63123;50.906;4.198;2023-04-25T03:02:57;16.70;54.30
74617;DHT22;63123;50.906;4.198;2023-04-25T03:05:23;16.70;54.30
74617;DHT22;63123;50.906;4.198;2023-04-25T03:07:48;16.70;54.20
74617;DHT22;63123;50.906;4.198;2023-04-25T03:10:14;16.70;54.30
74617;DHT22;63123;50.906;4.198;2023-04-25T03:12:39;16.70;54.30
74617;DHT22;63123;50.906;4.198;2023-04-25T03:15:05;16.70;54.30
74617;DHT22;63123;50.906;4.198;2023-04-25T03:17:31;16.70;54.30
74617;DHT22;63123;50.906;4.198;2023-04-25T03:19:57;16.70;54.20
74617;DHT22;63123;50.906;4.198;2023-04-25T03:22:23;16.60;54.20
74617;DHT22;63123;50.906;4.198;2023-04-25T03:24:50;16.70;54.20
74617;DHT22;63123;50.906;4.198;2023-04-25T03:27:16;16.70;54.10
74617;DHT22;63123;50.906;4.198;2023-04-25T03:29:42;16.70;54.20
74617;DHT22;63123;50.906;4.198;2023-04-25T03:32:07;16.70;54.20
74617;DHT22;63123;50.906;4.198;2023-04-25T03:34:33;16.70;54.10
74617;DHT22;63123;50.906;4.198;2023-04-25T03:36:59;16.70;54.20
74617;DHT22;63123;50.906;4.198;2023-04-25T03:39:25;16.70;54.20
74617;DHT22;63123;50.906;4.198;2023-04-25T03:41:50;16.70;54.10
74617;DHT22;63123;50.906;4.198;2023-04-25T03:44:16;16.70;54.20
74617;DHT22;63123;50.906;4.198;2023-04-25T03:46:42;16.70;54.20
74617;DHT22;63123;50.906;4.198;2023-04-25T03:49:07;16.70;54.10
74617;DHT22;63123;50.906;4.198;2023-04-25T03:51:33;16.70;54.10
74617;DHT22;63123;50.906;4.198;2023-04-25T03:53:59;16.70;54.10
74617;DHT22;63123;50.906;4.198;2023-04-25T03:56:24;16.70;54.00
74617;DHT22;63123;50.906;4.198;2023-04-25T03:58:50;16.60;54.20
74617;DHT22;63123;50.906;4.198;2023-04-25T04:01:15;16.70;54.30
74617;DHT22;63123;50.906;4.198;2023-04-25T04:03:41;16.70;54.00
74617;DHT22;63123;50.906;4.198;2023-04-25T04:06:07;16.60;54.00
74617;DHT22;63123;50.906;4.198;2023-04-25T04:08:34;16.70;54.20
74617;DHT22;63123;50.906;4.198;2023-04-25T04:10:59;16.70;54.20
74617;DHT22;63123;50.906;4.198;2023-04-25T04:13:26;16.70;54.20
74617;DHT22;63123;50.906;4.198;2023-04-25T04:15:52;16.60;54.10
74617;DHT22;63123;50.906;4.198;2023-04-25T04:18:18;16.70;54.10
74617;DHT22;63123;50.906;4.198;2023-04-25T04:20:44;16.60;54.10
74617;DHT22;63123;50.906;4.198;2023-04-25T04:23:10;16.70;54.10
74617;DHT22;63123;50.906;4.198;2023-04-25T04:25:36;16.60;54.10
74617;DHT22;63123;50.906;4.198;2023-04-25T04:28:02;16.70;54.10
74617;DHT22;63123;50.906;4.198;2023-04-25T04:30:28;16.70;54.30
74617;DHT22;63123;50.906;4.198;2023-04-25T04:32:55;16.70;54.10
74617;DHT22;63123;50.906;4.198;2023-04-25T04:35:21;16.60;54.00
74617;DHT22;63123;50.906;4.198;2023-04-25T04:37:47;16.70;54.00
74617;DHT22;63123;50.906;4.198;2023-04-25T04:40:14;16.60;54.00
74617;DHT22;63123;50.906;4.198;2023-04-25T04:42:46;16.60;54.00
74617;DHT22;63123;50.906;4.198;2023-04-25T04:45:12;16.60;54.10
74617;DHT22;63123;50.906;4.198;2023-04-25T04:47:38;16.70;53.90
74617;DHT22;63123;50.906;4.198;2023-04-25T04:50:06;16.70;54.00
74617;DHT22;63123;50.906;4.198;2023-04-25T04:52:34;16.70;53.70
74617;DHT22;63123;50.906;4.198;2023-04-25T04:55:01;16.70;53.90
74617;DHT22;63123;50.906;4.198;2023-04-25T04:57:27;16.60;53.80
74617;DHT22;63123;50.906;4.198;2023-04-25T04:59:53;16.60;53.60
74617;DHT22;63123;50.906;4.198;2023-04-25T05:02:19;16.70;53.60
74617;DHT22;63123;50.906;4.198;2023-04-25T05:04:45;16.60;53.80
74617;DHT22;63123;50.906;4.198;2023-04-25T05:07:11;16.70;53.70
74617;DHT22;63123;50.906;4.198;2023-04-25T05:09:37;16.60;53.50
74617;DHT22;63123;50.906;4.198;2023-04-25T05:12:02;16.70;53.50
74617;DHT22;63123;50.906;4.198;2023-04-25T05:14:28;16.60;53.60
74617;DHT22;63123;50.906;4.198;2023-04-25T05:16:54;16.60;53.60
74617;DHT22;63123;50.906;4.198;2023-04-25T05:19:20;16.60;53.90
74617;DHT22;63123;50.906;4.198;2023-04-25T05:21:45;16.60;53.90
74617;DHT22;63123;50.906;4.198;2023-04-25T05:24:11;16.60;53.80
74617;DHT22;63123;50.906;4.198;2023-04-25T05:26:37;16.60;54.00
74617;DHT22;63123;50.906;4.198;2023-04-25T05:29:03;16.70;54.00
74617;DHT22;63123;50.906;4.198;2023-04-25T05:31:29;16.60;53.90
74617;DHT22;63123;50.906;4.198;2023-04-25T05:33:54;16.70;54.00
74617;DHT22;63123;50.906;4.198;2023-04-25T05:36:20;16.70;54.00
74617;DHT22;63123;50.906;4.198;2023-04-25T05:38:46;16.70;54.30
74617;DHT22;63123;50.906;4.198;2023-04-25T05:41:12;16.70;54.10
74617;DHT22;63123;50.906;4.198;2023-04-25T05:43:38;16.70;54.10
74617;DHT22;63123;50.906;4.198;2023-04-25T05:46:03;16.70;54.20
74617;DHT22;63123;50.906;4.198;2023-04-25T05:48:29;16.70;54.10
74617;DHT22;63123;50.906;4.198;2023-04-25T05:50:55;16.60;54.30
74617;DHT22;63123;50.906;4.198;2023-04-25T05:53:21;16.70;54.30
74617;DHT22;63123;50.906;4.198;2023-04-25T05:55:47;16.70;54.30
74617;DHT22;63123;50.906;4.198;2023-04-25T05:58:13;16.70;54.30
74617;DHT22;63123;50.906;4.198;2023-04-25T06:00:38;16.70;54.40
74617;DHT22;63123;50.906;4.198;2023-04-25T06:03:06;16.70;54.40
74617;DHT22;63123;50.906;4.198;2023-04-25T06:05:35;16.70;54.30
74617;DHT22;63123;50.906;4.198;2023-04-25T06:08:00;16.70;54.40
74617;DHT22;63123;50.906;4.198;2023-04-25T06:10:26;16.70;55.00
74617;DHT22;63123;50.906;4.198;2023-04-25T06:12:52;16.70;54.30
74617;DHT22;63123;50.906;4.198;2023-04-25T06:15:17;16.70;54.30
74617;DHT22;63123;50.906;4.198;2023-04-25T06:17:43;16.70;54.20
74617;DHT22;63123;50.906;4.198;2023-04-25T06:20:09;16.70;54.30
74617;DHT22;63123;50.906;4.198;2023-04-25T06:22:35;16.70;54.30
74617;DHT22;63123;50.906;4.198;2023-04-25T06:25:01;16.70;54.40
74617;DHT22;63123;50.906;4.198;2023-04-25T06:27:29;16.70;54.30
74617;DHT22;63123;50.906;4.198;2023-04-25T06:29:54;16.70;54.30
74617;DHT22;63123;50.906;4.198;2023-04-25T06:32:20;16.70;54.20
74617;DHT22;63123;50.906;4.198;2023-04-25T06:34:46;16.70;54.20
74617;DHT22;63123;50.906;4.198;2023-04-25T06:37:11;16.70;54.20
74617;DHT22;63123;50.906;4.198;2023-04-25T06:39:37;16.70;54.40
74617;DHT22;63123;50.906;4.198;2023-04-25T06:42:03;16.70;54.20
74617;DHT22;63123;50.906;4.198;2023-04-25T06:44:28;16.70;54.30
74617;DHT22;63123;50.906;4.198;2023-04-25T06:46:55;16.70;54.20
74617;DHT22;63123;50.906;4.198;2023-04-25T06:49:20;16.70;54.20
74617;DHT22;63123;50.906;4.198;2023-04-25T06:51:46;16.70;54.30
74617;DHT22;63123;50.906;4.198;2023-04-25T06:54:11;16.70;54.10
74617;DHT22;63123;50.906;4.198;2023-04-25T06:56:37;16.70;54.20
74617;DHT22;63123;50.906;4.198;2023-04-25T06:59:03;16.70;54.00
74617;DHT22;63123;50.906;4.198;2023-04-25T07:01:28;16.70;54.20
74617;DHT22;63123;50.906;4.198;2023-04-25T07:03:54;16.70;54.00
74617;DHT22;63123;50.906;4.198;2023-04-25T07:06:20;16.70;54.10
74617;DHT22;63123;50.906;4.198;2023-04-25T07:08:45;16.70;54.60
74617;DHT22;63123;50.906;4.198;2023-04-25T07:11:11;16.70;54.00
74617;DHT22;63123;50.906;4.198;2023-04-25T07:13:36;16.70;54.00
74617;DHT22;63123;50.906;4.198;2023-04-25T07:16:02;16.70;54.00
74617;DHT22;63123;50.906;4.198;2023-04-25T07:18:28;16.70;53.90
74617;DHT22;63123;50.906;4.198;2023-04-25T07:20:54;16.70;53.90
74617;DHT22;63123;50.906;4.198;2023-04-25T07:23:20;16.70;54.00
74617;DHT22;63123;50.906;4.198;2023-04-25T07:25:46;16.70;53.90
74617;DHT22;63123;50.906;4.198;2023-04-25T07:28:11;16.70;54.00
74617;DHT22;63123;50.906;4.198;2023-04-25T07:30:37;16.70;53.80
74617;DHT22;63123;50.906;4.198;2023-04-25T07:33:03;16.70;53.80
74617;DHT22;63123;50.906;4.198;2023-04-25T07:35:28;16.70;54.30
74617;DHT22;63123;50.906;4.198;2023-04-25T07:37:54;16.70;53.60
74617;DHT22;63123;50.906;4.198;2023-04-25T07:40:19;16.70;53.60
74617;DHT22;63123;50.906;4.198;2023-04-25T07:42:45;16.70;53.50
74617;DHT22;63123;50.906;4.198;2023-04-25T07:45:11;16.70;53.40
74617;DHT22;63123;50.906;4.198;2023-04-25T07:47:36;16.70;53.30
74617;DHT22;63123;50.906;4.198;2023-04-25T07:50:03;16.70;53.20
74617;DHT22;63123;50.906;4.198;2023-04-25T07:52:29;16.70;53.00
74617;DHT22;63123;50.906;4.198;2023-04-25T07:54:55;16.70;53.10
74617;DHT22;63123;50.906;4.198;2023-04-25T07:57:20;16.70;53.20
74617;DHT22;63123;50.906;4.198;2023-04-25T07:59:46;16.70;53.00
74617;DHT22;63123;50.906;4.198;2023-04-25T08:02:11;16.70;52.80
74617;DHT22;63123;50.906;4.198;2023-04-25T08:04:37;16.70;52.80
74617;DHT22;63123;50.906;4.198;2023-04-25T08:07:03;16.70;52.80
74617;DHT22;63123;50.906;4.198;2023-04-25T08:09:28;16.70;53.00
74617;DHT22;63123;50.906;4.198;2023-04-25T08:11:54;16.70;53.20
74617;DHT22;63123;50.906;4.198;2023-04-25T08:14:20;16.80;52.50
74617;DHT22;63123;50.906;4.198;2023-04-25T08:16:46;16.70;52.50
74617;DHT22;63123;50.906;4.198;2023-04-25T08:19:11;16.70;52.30
74617;DHT22;63123;50.906;4.198;2023-04-25T08:21:37;16.80;52.40
74617;DHT22;63123;50.906;4.198;2023-04-25T08:24:03;16.70;52.20
74617;DHT22;63123;50.906;4.198;2023-04-25T08:26:29;16.70;52.10
74617;DHT22;63123;50.906;4.198;2023-04-25T08:28:55;16.70;51.90
74617;DHT22;63123;50.906;4.198;2023-04-25T08:31:20;16.70;52.10
74617;DHT22;63123;50.906;4.198;2023-04-25T08:33:46;16.80;51.90
74617;DHT22;63123;50.906;4.198;2023-04-25T08:36:12;16.80;52.00
74617;DHT22;63123;50.906;4.198;2023-04-25T08:38:37;16.80;52.40
74617;DHT22;63123;50.906;4.198;2023-04-25T08:41:03;16.80;52.20
74617;DHT22;63123;50.906;4.198;2023-04-25T08:43:30;16.80;52.40
74617;DHT22;63123;50.906;4.198;2023-04-25T08:46:00;16.80;52.10
74617;DHT22;63123;50.906;4.198;2023-04-25T08:48:32;16.70;52.00
74617;DHT22;63123;50.906;4.198;2023-04-25T08:50:58;16.80;52.60
74617;DHT22;63123;50.906;4.198;2023-04-25T08:53:32;16.70;52.20
74617;DHT22;63123;50.906;4.198;2023-04-25T08:56:00;16.70;52.10
74617;DHT22;63123;50.906;4.198;2023-04-25T08:58:29;16.70;52.40
74617;DHT22;63123;50.906;4.198;2023-04-25T09:00:55;16.80;52.80
74617;DHT22;63123;50.906;4.198;2023-04-25T09:03:20;16.70;52.40
74617;DHT22;63123;50.906;4.198;2023-04-25T09:05:46;16.70;52.50
74617;DHT22;63123;50.906;4.198;2023-04-25T09:08:12;16.70;52.40
74617;DHT22;63123;50.906;4.198;2023-04-25T09:10:37;16.80;52.30
74617;DHT22;63123;50.906;4.198;2023-04-25T09:13:08;16.80;52.40
74617;DHT22;63123;50.906;4.198;2023-04-25T09:15:51;16.80;52.30
74617;DHT22;63123;50.906;4.198;2023-04-25T09:18:27;16.80;52.00
74617;DHT22;63123;50.906;4.198;2023-04-25T09:20:55;16.80;52.10
74617;DHT22;63123;50.906;4.198;2023-04-25T09:23:21;16.90;52.20
74617;DHT22;63123;50.906;4.198;2023-04-25T09:25:51;16.90;52.10
74617;DHT22;63123;50.906;4.198;2023-04-25T09:28:23;16.90;51.80
74617;DHT22;63123;50.906;4.198;2023-04-25T09:30:55;16.90;51.90
74617;DHT22;63123;50.906;4.198;2023-04-25T09:33:30;16.90;51.90
74617;DHT22;63123;50.906;4.198;2023-04-25T09:36:03;16.90;51.50
74617;DHT22;63123;50.906;4.198;2023-04-25T09:38:31;17.00;51.80
74617;DHT22;63123;50.906;4.198;2023-04-25T09:40:57;17.00;51.40
74617;DHT22;63123;50.906;4.198;2023-04-25T09:43:23;17.00;51.40
74617;DHT22;63123;50.906;4.198;2023-04-25T09:45:50;17.10;51.20
74617;DHT22;63123;50.906;4.198;2023-04-25T09:48:21;17.10;51.20
74617;DHT22;63123;50.906;4.198;2023-04-25T09:53:40;17.40;49.60
74617;DHT22;63123;50.906;4.198;2023-04-25T09:56:07;19.00;46.60
74617;DHT22;63123;50.906;4.198;2023-04-25T09:58:34;20.00;43.40
74617;DHT22;63123;50.906;4.198;2023-04-25T10:01:02;20.80;41.80
74617;DHT22;63123;50.906;4.198;2023-04-25T10:03:33;21.20;41.40
74617;DHT22;63123;50.906;4.198;2023-04-25T10:06:02;21.50;40.00
74617;DHT22;63123;50.906;4.198;2023-04-25T10:08:34;20.10;41.50
74617;DHT22;63123;50.906;4.198;2023-04-25T10:11:02;20.00;42.30
74617;DHT22;63123;50.906;4.198;2023-04-25T10:13:29;19.20;44.10
74617;DHT22;63123;50.906;4.198;2023-04-25T10:15:57;18.60;45.50
74617;DHT22;63123;50.906;4.198;2023-04-25T10:18:25;18.30;46.20
74617;DHT22;63123;50.906;4.198;2023-04-25T10:20:51;18.00;47.20
74617;DHT22;63123;50.906;4.198;2023-04-25T10:23:17;17.80;48.00
74617;DHT22;63123;50.906;4.198;2023-04-25T10:25:43;17.70;48.50
74617;DHT22;63123;50.906;4.198;2023-04-25T10:28:09;17.60;49.00
74617;DHT22;63123;50.906;4.198;2023-04-25T10:30:34;17.50;49.10
74617;DHT22;63123;50.906;4.198;2023-04-25T10:33:00;17.50;49.30
74617;DHT22;63123;50.906;4.198;2023-04-25T10:35:29;17.40;49.80
74617;DHT22;63123;50.906;4.198;2023-04-25T10:38:08;17.40;50.50
74617;DHT22;63123;50.906;4.198;2023-04-25T10:40:34;17.30;50.70
74617;DHT22;63123;50.906;4.198;2023-04-25T10:45:56;17.20;51.60
74617;DHT22;63123;50.906;4.198;2023-04-25T10:48:28;17.20;51.20
74617;DHT22;63123;50.906;4.198;2023-04-25T10:51:17;17.20;51.70
74617;DHT22;63123;50.906;4.198;2023-04-25T10:53:45;17.20;51.60
74617;DHT22;63123;50.906;4.198;2023-04-25T10:56:59;17.20;51.50
74617;DHT22;63123;50.906;4.198;2023-04-25T10:59:17;17.20;51.80
74617;DHT22;63123;50.906;4.198;2023-04-25T11:01:45;17.10;52.20
74617;DHT22;63123;50.906;4.198;2023-04-25T11:09:28;17.10;51.80
74617;DHT22;63123;50.906;4.198;2023-04-25T11:11:58;17.00;52.00
74617;DHT22;63123;50.906;4.198;2023-04-25T11:14:25;17.00;51.60
74617;DHT22;63123;50.906;4.198;2023-04-25T11:16:56;17.00;51.50
74617;DHT22;63123;50.906;4.198;2023-04-25T11:19:22;17.00;51.90
74617;DHT22;63123;50.906;4.198;2023-04-25T11:21:48;17.00;51.20
74617;DHT22;63123;50.906;4.198;2023-04-25T11:24:15;17.00;51.20
74617;DHT22;63123;50.906;4.198;2023-04-25T11:26:46;17.00;51.30
74617;DHT22;63123;50.906;4.198;2023-04-25T11:29:13;17.00;51.30
74617;DHT22;63123;50.906;4.198;2023-04-25T11:31:39;17.00;51.50
74617;DHT22;63123;50.906;4.198;2023-04-25T11:34:08;16.90;51.40
74617;DHT22;63123;50.906;4.198;2023-04-25T11:36:33;17.00;51.40
74617;DHT22;63123;50.906;4.198;2023-04-25T11:38:59;17.00;51.40
74617;DHT22;63123;50.906;4.198;2023-04-25T11:41:25;16.90;51.40
74617;DHT22;63123;50.906;4.198;2023-04-25T11:43:51;17.00;50.90
74617;DHT22;63123;50.906;4.198;2023-04-25T11:46:17;17.00;50.80
74617;DHT22;63123;50.906;4.198;2023-04-25T11:48:45;17.00;51.10
74617;DHT22;63123;50.906;4.198;2023-04-25T11:51:11;17.00;50.70
74617;DHT22;63123;50.906;4.198;2023-04-25T11:53:41;17.00;51.10
74617;DHT22;63123;50.906;4.198;2023-04-25T11:56:10;17.00;50.90
74617;DHT22;63123;50.906;4.198;2023-04-25T12:01:30;17.00;50.70
74617;DHT22;63123;50.906;4.198;2023-04-25T12:03:57;17.00;51.00
74617;DHT22;63123;50.906;4.198;2023-04-25T12:06:27;17.00;50.80
74617;DHT22;63123;50.906;4.198;2023-04-25T12:09:03;17.00;51.30
74617;DHT22;63123;50.906;4.198;2023-04-25T12:11:30;17.00;50.80
74617;DHT22;63123;50.906;4.198;2023-04-25T12:14:02;17.00;50.80
74617;DHT22;63123;50.906;4.198;2023-04-25T12:16:28;17.00;50.20
74617;DHT22;63123;50.906;4.198;2023-04-25T12:18:55;17.00;50.70
74617;DHT22;63123;50.906;4.198;2023-04-25T12:21:22;17.00;51.50
74617;DHT22;63123;50.906;4.198;2023-04-25T12:23:48;17.00;51.10
74617;DHT22;63123;50.906;4.198;2023-04-25T12:26:13;17.00;51.10
74617;DHT22;63123;50.906;4.198;2023-04-25T12:28:39;17.00;50.90
74617;DHT22;63123;50.906;4.198;2023-04-25T12:31:06;17.00;50.80
74617;DHT22;63123;50.906;4.198;2023-04-25T12:33:36;17.00;50.80
74617;DHT22;63123;50.906;4.198;2023-04-25T12:36:04;17.00;50.50
74617;DHT22;63123;50.906;4.198;2023-04-25T12:38:40;17.00;50.70
74617;DHT22;63123;50.906;4.198;2023-04-25T12:41:06;17.00;50.90
74617;DHT22;63123;50.906;4.198;2023-04-25T12:43:32;17.00;51.20
74617;DHT22;63123;50.906;4.198;2023-04-25T12:45:57;17.00;50.70
74617;DHT22;63123;50.906;4.198;2023-04-25T12:48:23;17.00;51.40
74617;DHT22;63123;50.906;4.198;2023-04-25T12:50:50;16.90;51.10
74617;DHT22;63123;50.906;4.198;2023-04-25T12:53:16;17.00;50.20
74617;DHT22;63123;50.906;4.198;2023-04-25T12:55:42;17.00;50.90
74617;DHT22;63123;50.906;4.198;2023-04-25T12:58:08;16.90;50.70
74617;DHT22;63123;50.906;4.198;2023-04-25T13:00:34;16.90;50.00
74617;DHT22;63123;50.906;4.198;2023-04-25T13:02:59;16.90;50.70
74617;DHT22;63123;50.906;4.198;2023-04-25T13:05:25;17.00;50.00
74617;DHT22;63123;50.906;4.198;2023-04-25T13:07:51;17.00;49.50
74617;DHT22;63123;50.906;4.198;2023-04-25T13:10:17;16.90;49.80
74617;DHT22;63123;50.906;4.198;2023-04-25T13:12:43;16.90;49.60
74617;DHT22;63123;50.906;4.198;2023-04-25T13:15:09;17.00;49.60
74617;DHT22;63123;50.906;4.198;2023-04-25T13:17:37;17.00;49.10
74617;DHT22;63123;50.906;4.198;2023-04-25T13:20:07;17.00;49.10
74617;DHT22;63123;50.906;4.198;2023-04-25T13:22:34;16.90;49.10
74617;DHT22;63123;50.906;4.198;2023-04-25T13:25:02;17.00;49.40
74617;DHT22;63123;50.906;4.198;2023-04-25T13:27:28;16.90;49.50
74617;DHT22;63123;50.906;4.198;2023-04-25T13:29:54;16.90;49.50
74617;DHT22;63123;50.906;4.198;2023-04-25T13:32:20;16.90;49.50
74617;DHT22;63123;50.906;4.198;2023-04-25T13:34:45;17.00;49.60
74617;DHT22;63123;50.906;4.198;2023-04-25T13:37:11;16.90;49.60
74617;DHT22;63123;50.906;4.198;2023-04-25T13:39:36;16.90;50.10
74617;DHT22;63123;50.906;4.198;2023-04-25T13:42:02;16.90;49.80
74617;DHT22;63123;50.906;4.198;2023-04-25T13:44:28;16.90;50.00
74617;DHT22;63123;50.906;4.198;2023-04-25T13:46:54;16.90;50.40
74617;DHT22;63123;50.906;4.198;2023-04-25T13:49:19;16.90;50.40
74617;DHT22;63123;50.906;4.198;2023-04-25T13:51:45;16.90;50.00
74617;DHT22;63123;50.906;4.198;2023-04-25T13:54:11;16.90;50.00
74617;DHT22;63123;50.906;4.198;2023-04-25T13:56:36;16.90;50.00
74617;DHT22;63123;50.906;4.198;2023-04-25T13:59:02;16.90;49.60
74617;DHT22;63123;50.906;4.198;2023-04-25T14:01:28;16.90;49.70
74617;DHT22;63123;50.906;4.198;2023-04-25T14:03:55;16.90;49.80
74617;DHT22;63123;50.906;4.198;2023-04-25T14:06:21;16.90;49.70
74617;DHT22;63123;50.906;4.198;2023-04-25T14:08:49;16.90;49.70
74617;DHT22;63123;50.906;4.198;2023-04-25T14:11:15;16.90;49.30
74617;DHT22;63123;50.906;4.198;2023-04-25T14:13:43;16.90;49.30
74617;DHT22;63123;50.906;4.198;2023-04-25T14:16:09;16.90;49.50
74617;DHT22;63123;50.906;4.198;2023-04-25T14:18:35;17.00;49.70
74617;DHT22;63123;50.906;4.198;2023-04-25T14:21:01;16.90;49.50
74617;DHT22;63123;50.906;4.198;2023-04-25T14:23:26;16.90;49.60
74617;DHT22;63123;50.906;4.198;2023-04-25T14:25:52;17.00;49.60
74617;DHT22;63123;50.906;4.198;2023-04-25T14:28:18;16.90;49.50
74617;DHT22;63123;50.906;4.198;2023-04-25T14:30:45;16.90;49.40
74617;DHT22;63123;50.906;4.198;2023-04-25T14:33:10;17.00;50.00
74617;DHT22;63123;50.906;4.198;2023-04-25T14:35:36;16.90;49.90
74617;DHT22;63123;50.906;4.198;2023-04-25T14:38:03;17.00;49.40
74617;DHT22;63123;50.906;4.198;2023-04-25T14:40:28;17.00;49.60
74617;DHT22;63123;50.906;4.198;2023-04-25T14:42:54;16.90;49.40
74617;DHT22;63123;50.906;4.198;2023-04-25T14:45:20;16.90;49.30
74617;DHT22;63123;50.906;4.198;2023-04-25T14:47:45;17.00;49.50
74617;DHT22;63123;50.906;4.198;2023-04-25T14:50:11;17.00;49.60
74617;DHT22;63123;50.906;4.198;2023-04-25T14:52:37;17.00;49.30
74617;DHT22;63123;50.906;4.198;2023-04-25T14:55:03;16.90;48.90
74617;DHT22;63123;50.906;4.198;2023-04-25T14:57:33;17.00;49.10
74617;DHT22;63123;50.906;4.198;2023-04-25T14:59:59;16.90;48.90
74617;DHT22;63123;50.906;4.198;2023-04-25T15:02:25;17.00;49.10
74617;DHT22;63123;50.906;4.198;2023-04-25T15:04:52;16.90;48.90
74617;DHT22;63123;50.906;4.198;2023-04-25T15:07:17;16.90;49.10
74617;DHT22;63123;50.906;4.198;2023-04-25T15:09:43;17.00;49.00
74617;DHT22;63123;50.906;4.198;2023-04-25T15:12:09;16.90;48.90
74617;DHT22;63123;50.906;4.198;2023-04-25T15:14:35;16.90;49.00
74617;DHT22;63123;50.906;4.198;2023-04-25T15:17:00;16.90;49.20
74617;DHT22;63123;50.906;4.198;2023-04-25T15:19:26;16.90;49.50
74617;DHT22;63123;50.906;4.198;2023-04-25T15:21:52;17.00;48.70
74617;DHT22;63123;50.906;4.198;2023-04-25T15:24:18;17.00;49.20
74617;DHT22;63123;50.906;4.198;2023-04-25T15:26:44;17.00;49.10
74617;DHT22;63123;50.906;4.198;2023-04-25T15:29:11;16.90;49.10
74617;DHT22;63123;50.906;4.198;2023-04-25T15:31:37;16.90;49.10
74617;DHT22;63123;50.906;4.198;2023-04-25T15:34:03;16.90;49.40
74617;DHT22;63123;50.906;4.198;2023-04-25T15:36:29;16.90;49.20
74617;DHT22;63123;50.906;4.198;2023-04-25T15:38:55;16.90;49.20
74617;DHT22;63123;50.906;4.198;2023-04-25T15:41:21;16.90;49.10